Terminal Aerodrome Forecast
Issued by NWS

Current Version | Previous Version | Graphics & Text | Print | Product List | Glossary On
Versions: 1 2 3 4 5 6 7 8 9 10 11 12 13 14 15
838
FTUS41 KILN 190238 AAB
TAFLUK
TAF AMD
KLUK 190238Z 1903/1924 21007KT P6SM OVC015
     FM190600 VRB03KT 5SM BR OVC015
     FM191000 VRB03KT 2SM BR OVC009
     FM191500 26004KT P6SM BKN015
     FM192000 26005KT P6SM SCT025=

USA.gov is the U.S. government's official web portal to all federal, state and local government web resources and services.